Time;durP1;ratioP1;P1;durP2;ratioP2;P2;SDS_P1;SDS_P2;PMS_P1;PMS_P2;Temp;Humidity;BMP_temperature;BMP_pressure;BME280_temperature;BME280_humidity;BME280_pressure;Samples;Min_cycle;Max_cycle;Signal;HPM_P1;HPM_P2
2022/07/26 00:00:31;;;;;;;;;;;;;;;15.87;100.00;99287.77;1724388;82;20957;-66
2022/07/26 00:02:58;;;;;;;6.85;2.87;;;;;;;15.90;100.00;99283.61;1714293;82;20127;-66
2022/07/26 00:05:24;;;;;;;;;;;;;;;15.87;100.00;99269.93;1722744;82;21018;-66
2022/07/26 00:08:09;;;;;;;4.70;3.00;;;;;;;15.89;100.00;99277.30;1730922;81;20127;-66
2022/07/26 00:10:19;;;;;;;7.53;3.45;;;;;;;15.84;100.00;99283.48;1711928;82;21010;-66
2022/07/26 00:12:46;;;;;;;6.50;3.50;;;;;;;15.74;100.00;99281.02;1717544;82;21079;-67
2022/07/26 00:15:13;;;;;;;4.42;3.25;;;;;;;15.64;100.00;99279.94;1716533;82;20967;-67
2022/07/26 00:17:42;;;;;;;5.83;3.50;;;;;;;15.60;100.00;99280.31;1728575;82;21538;-67
2022/07/26 00:20:09;;;;;;;5.75;3.33;;;;;;;15.61;100.00;99282.75;1726321;82;20952;-67
2022/07/26 00:22:37;;;;;;;6.62;3.80;;;;;;;15.66;100.00;99283.19;1725826;82;21059;-66
2022/07/26 00:25:06;;;;;;;7.40;3.90;;;;;;;15.65;100.00;99283.75;1716281;82;20972;-66
2022/07/26 00:27:37;;;;;;;5.17;3.60;;;;;;;15.61;100.00;99279.20;1720006;82;21087;-66
2022/07/26 00:30:06;;;;;;;4.60;3.58;;;;;;;15.60;100.00;99280.31;1729274;82;21503;-66
2022/07/26 00:32:33;;;;;;;6.62;3.33;;;;;;;15.63;100.00;99274.19;1732927;82;21012;-67
2022/07/26 00:34:59;;;;;;;7.25;3.25;;;;;;;15.64;100.00;99275.26;1725137;82;20948;-67
2022/07/26 00:37:25;;;;;;;;;;;;;;;15.66;100.00;99273.58;1727513;81;21044;-67
2022/07/26 00:39:52;;;;;;;6.22;3.15;;;;;;;15.65;100.00;99285.12;1718192;82;20129;-67
2022/07/26 00:42:18;;;;;;;;;;;;;;;15.57;100.00;99275.46;1719558;82;21102;-66
2022/07/26 00:44:45;;;;;;;4.55;2.42;;;;;;;15.55;100.00;99270.30;1737455;82;20111;-67
2022/07/26 00:47:12;;;;;;;3.67;2.77;;;;;;;15.54;100.00;99276.09;1712086;82;21063;-66
2022/07/26 00:49:38;;;;;;;5.45;2.65;;;;;;;15.54;100.00;99278.84;1717827;82;21016;-67
2022/07/26 00:52:06;;;;;;;4.15;2.22;;;;;;;15.54;100.00;99265.12;1729616;82;21032;-66
2022/07/26 00:54:32;;;;;;;4.90;2.77;;;;;;;15.55;100.00;99262.63;1723721;82;21456;-65
2022/07/26 00:56:58;;;;;;;3.65;2.62;;;;;;;15.54;100.00;99269.23;1722955;82;21086;-65
2022/07/26 00:59:25;;;;;;;4.22;2.33;;;;;;;15.50;100.00;99278.66;1717551;82;20992;-65
2022/07/26 01:01:52;;;;;;;4.75;2.55;;;;;;;15.50;100.00;99268.25;1724611;82;21047;-64
2022/07/26 01:04:18;;;;;;;4.12;2.40;;;;;;;15.51;100.00;99269.31;1720459;82;21460;-64
2022/07/26 01:06:47;;;;;;;4.35;2.30;;;;;;;15.54;100.00;99267.30;1730296;82;21111;-66
2022/07/26 01:09:13;;;;;;;4.92;2.30;;;;;;;15.57;100.00;99261.19;1724692;82;21032;-67
2022/07/26 01:11:40;;;;;;;5.40;2.40;;;;;;;15.59;100.00;99267.74;1726773;82;21035;-66
2022/07/26 01:14:06;;;;;;;;;;;;;;;15.55;100.00;99257.96;1722943;82;21466;-67
2022/07/26 01:16:33;;;;;;;3.10;2.10;;;;;;;15.54;100.00;99259.08;1720215;82;20105;-67
2022/07/26 01:18:59;;;;;;;3.15;1.98;;;;;;;15.51;100.00;99255.59;1725137;82;21427;-66
2022/07/26 01:21:29;;;;;;;;;;;;;;;15.52;100.00;99259.94;1717263;82;21063;-67
2022/07/26 01:23:55;;;;;;;3.10;2.08;;;;;;;15.53;100.00;99262.13;1709991;82;20425;-66
2022/07/26 01:26:21;;;;;;;;;;;;;;;15.49;100.00;99263.31;1717754;82;21091;-67
2022/07/26 01:28:48;;;;;;;4.17;2.55;;;;;;;15.47;100.00;99261.44;1714538;82;20117;-67
2022/07/26 01:31:15;;;;;;;5.87;2.70;;;;;;;15.35;100.00;99266.12;1719482;82;21070;-66
2022/07/26 01:33:41;;;;;;;;;;;;;;;15.34;100.00;99264.49;1725466;82;20985;-67
2022/07/26 01:36:08;;;;;;;2.98;2.50;;;;;;;15.35;100.00;99268.86;1734163;81;20149;-66
2022/07/26 01:38:35;;;;;;;4.80;2.20;;;;;;;15.30;100.00;99265.46;1740741;82;20975;-66
2022/07/26 01:41:01;;;;;;;;;;;;;;;15.29;100.00;99259.72;1736896;82;20987;-66
2022/07/26 01:43:27;;;;;;;4.05;2.83;;;;;;;15.23;100.00;99257.66;1739861;82;20118;-66
2022/07/26 01:45:54;;;;;;;4.53;2.65;;;;;;;15.17;100.00;99258.91;1731154;82;20978;-66
2022/07/26 01:48:20;;;;;;;5.10;2.45;;;;;;;15.17;100.00;99260.84;1736268;82;20967;-66
2022/07/26 01:50:47;;;;;;;;;;;;;;;15.20;100.00;99263.77;1743491;82;20979;-67
2022/07/26 01:53:13;;;;;;;3.90;2.42;;;;;;;15.22;100.00;99264.28;1743989;82;20107;-67
2022/07/26 01:55:39;;;;;;;;;;;;;;;15.18;100.00;99268.77;1743160;82;21035;-67
2022/07/26 01:58:06;;;;;;;3.47;2.45;;;;;;;15.15;100.00;99266.66;1737860;82;20402;-66
2022/07/26 02:00:32;;;;;;;3.08;2.33;;;;;;;15.05;100.00;99266.10;1744437;82;20967;-67
2022/07/26 02:03:00;;;;;;;5.92;2.67;;;;;;;15.03;100.00;99264.22;1743448;82;21114;-67
2022/07/26 02:05:26;;;;;;;5.85;2.40;;;;;;;15.06;100.00;99260.29;1731030;82;20999;-66
2022/07/26 02:07:53;;;;;;;3.35;2.30;;;;;;;15.06;100.00;99258.92;1736579;82;21086;-67
2022/07/26 02:10:19;;;;;;;;;;;;;;;15.08;100.00;99256.69;1738385;82;21097;-67
2022/07/26 02:12:45;;;;;;;7.85;2.40;;;;;;;15.10;100.00;99257.17;1742000;82;20115;-66
2022/07/26 02:15:12;;;;;;;;;;;;;;;15.08;100.00;99257.25;1743783;82;21385;-67
2022/07/26 02:17:39;;;;;;;3.80;2.70;;;;;;;14.99;100.00;99250.33;1731833;82;20095;-67
2022/07/26 02:20:07;;;;;;;5.20;3.12;;;;;;;14.83;100.00;99258.69;1732557;82;21030;-67
2022/07/26 02:22:33;;;;;;;6.15;2.70;;;;;;;14.78;100.00;99255.50;1735351;82;21640;-67
2022/07/26 02:24:59;;;;;;;4.28;2.67;;;;;;;14.77;100.00;99247.61;1746223;82;20967;-67
2022/07/26 02:27:25;;;;;;;;;;;;;;;14.76;100.00;99248.72;1736898;82;21113;-67
2022/07/26 02:29:52;;;;;;;7.55;3.12;;;;;;;14.77;100.00;99251.72;1724573;82;20144;-67
2022/07/26 02:32:18;;;;;;;;;;;;;;;14.73;100.00;99258.94;1730258;82;21648;-67
2022/07/26 02:34:44;;;;;;;5.92;3.55;;;;;;;14.73;100.00;99259.75;1729826;82;20156;-67
2022/07/26 02:37:11;;;;;;;7.83;3.70;;;;;;;14.72;100.00;99262.79;1728043;82;21019;-67
2022/07/26 02:39:37;;;;;;;;;;;;;;;14.71;100.00;99261.16;1736012;82;21063;-67
2022/07/26 02:42:03;;;;;;;7.62;4.62;;;;;;;14.65;100.00;99257.73;1736837;82;20394;-66
2022/07/26 02:44:30;;;;;;;6.85;4.17;;;;;;;14.60;100.00;99256.48;1719847;82;21470;-67
2022/07/26 02:46:56;;;;;;;;;;;;;;;14.66;100.00;99258.55;1730987;82;21055;-66
2022/07/26 02:49:22;;;;;;;6.20;3.80;;;;;;;14.71;100.00;99262.53;1734196;82;20133;-66
2022/07/26 02:51:49;;;;;;;9.05;3.92;;;;;;;14.73;100.00;99260.30;1725479;82;21094;-66
2022/07/26 02:54:16;;;;;;;7.08;3.67;;;;;;;14.78;100.00;99261.53;1725471;82;20987;-66
2022/07/26 02:56:42;;;;;;;;;;;;;;;14.83;100.00;99265.53;1731791;82;21087;-67
2022/07/26 02:59:08;;;;;;;7.17;4.80;;;;;;;14.87;100.00;99261.87;1735047;82;20185;-67
2022/07/26 03:01:34;;;;;;;10.32;4.95;;;;;;;14.81;100.00;99268.58;1731554;82;21039;-67
2022/07/26 03:04:01;;;;;;;;;;;;;;;14.83;100.00;99260.88;1740590;82;21027;-67
2022/07/26 03:06:27;;;;;;;13.30;5.20;;;;;;;14.89;100.00;99257.44;1722015;82;20388;-67
2022/07/26 03:08:54;;;;;;;;;;;;;;;14.89;100.00;99259.62;1723968;82;21031;-65
2022/07/26 03:11:20;;;;;;;10.28;5.70;;;;;;;14.93;100.00;99252.40;1730573;82;20133;-67
2022/07/26 03:13:46;;;;;;;10.88;5.67;;;;;;;14.91;100.00;99249.73;1733681;82;20988;-67
2022/07/26 03:16:12;;;;;;;;;;;;;;;14.91;100.00;99254.63;1728359;82;21039;-66
2022/07/26 03:18:39;;;;;;;10.40;6.08;;;;;;;14.87;100.00;99248.73;1725167;82;20099;-66
2022/07/26 03:21:06;;;;;;;12.40;6.28;;;;;;;14.79;100.00;99250.83;1736304;82;21463;-68
2022/07/26 03:23:33;;;;;;;11.50;6.65;;;;;;;14.82;100.00;99253.77;1715835;82;21027;-68
2022/07/26 03:26:01;;;;;;;14.98;7.00;;;;;;;14.89;100.00;99249.21;1741853;82;21015;-68
2022/07/26 03:28:31;;;;;;;13.38;7.03;;;;;;;14.96;100.00;99255.06;1737246;82;21019;-68
2022/07/26 03:30:58;;;;;;;11.20;6.70;;;;;;;15.02;100.00;99250.28;1737027;82;20980;-68
2022/07/26 03:33:24;;;;;;;;;;;;;;;15.11;100.00;99252.51;1703226;82;21027;-68
2022/07/26 03:35:50;;;;;;;13.08;7.53;;;;;;;15.13;100.00;99252.44;1739640;82;20426;-68
2022/07/26 03:38:16;;;;;;;;;;;;;;;15.07;100.00;99250.95;1737454;82;21511;-68
2022/07/26 03:40:42;;;;;;;12.68;7.47;;;;;;;15.10;100.00;99254.98;1735526;82;20123;-69
2022/07/26 03:43:09;;;;;;;15.83;7.72;;;;;;;15.12;100.00;99252.77;1727976;82;21919;-69
2022/07/26 03:45:35;;;;;;;;;;;;;;;15.22;100.00;99248.39;1721385;82;20976;-68
2022/07/26 03:48:01;;;;;;;11.88;7.35;;;;;;;15.33;100.00;99258.78;1729665;82;20107;-68
2022/07/26 03:50:28;;;;;;;;;;;;;;;15.47;100.00;99253.20;1723468;82;21035;-69
2022/07/26 03:52:54;;;;;;;12.50;8.20;;;;;;;15.69;100.00;99257.86;1699663;84;20105;-68
2022/07/26 03:58:04;;;;;;;15.65;8.63;;;;;;;16.01;100.00;99257.48;1730178;81;20400;-68
2022/07/26 04:00:31;;;;;;;;;;;;;;;16.24;100.00;99249.38;1723415;82;20964;-69
2022/07/26 04:02:57;;;;;;;15.08;8.53;;;;;;;16.61;100.00;99258.98;1714081;81;20098;-68
2022/07/26 04:05:23;;;;;;;;;;;;;;;16.83;100.00;99257.98;1712863;83;20976;-68
2022/07/26 04:07:49;;;;;;;18.60;8.23;;;;;;;17.14;100.00;99257.81;1716359;81;20111;-68
2022/07/26 04:10:17;;;;;;;;;;;;;;;17.32;100.00;99251.14;1729218;82;20968;-68
2022/07/26 04:12:43;;;;;;;13.90;8.13;;;;;;;17.50;100.00;99239.52;1714285;82;20303;-65
2022/07/26 04:15:09;;;;;;;;;;;;;;;17.55;100.00;99244.27;1711362;84;20988;-66
2022/07/26 04:17:38;;;;;;;15.47;8.00;;;;;;;17.73;100.00;99243.09;1687867;82;20428;-66
2022/07/26 04:20:06;;;;;;;17.15;8.25;;;;;;;17.91;100.00;99243.81;1737515;82;21008;-64
2022/07/26 04:22:35;;;;;;;14.65;7.42;;;;;;;18.12;100.00;99241.10;1709969;82;21111;-66
2022/07/26 04:25:01;;;;;;;16.32;8.08;;;;;;;18.45;100.00;99245.35;1708958;84;20987;-66
2022/07/26 04:27:28;;;;;;;11.80;7.33;;;;;;;18.71;100.00;99239.08;1709063;84;21087;-66
2022/07/26 04:29:54;;;;;;;12.00;7.65;;;;;;;19.05;100.00;99247.63;1728187;82;21423;-66
2022/07/26 04:32:20;;;;;;;13.43;7.90;;;;;;;19.36;100.00;99240.48;1737704;82;21496;-65
2022/07/26 04:34:47;;;;;;;11.78;6.42;;;;;;;19.68;100.00;99246.31;1738877;82;20944;-66
2022/07/26 04:37:13;;;;;;;11.85;6.15;;;;;;;19.83;100.00;99235.41;1737213;81;21047;-66
2022/07/26 04:39:40;;;;;;;9.53;5.67;;;;;;;19.96;100.00;99230.67;1717357;82;21388;-66
2022/07/26 04:42:06;;;;;;;10.98;6.10;;;;;;;20.14;100.00;99227.09;1729070;82;21732;-66
2022/07/26 04:44:32;;;;;;;9.85;6.42;;;;;;;20.33;100.00;99225.95;1726801;82;21011;-66
2022/07/26 04:46:59;;;;;;;9.40;6.08;;;;;;;20.44;100.00;99235.36;1735229;82;21641;-65
2022/07/26 04:49:25;;;;;;;10.13;5.45;;;;;;;20.52;100.00;99231.66;1745904;82;20959;-65
2022/07/26 04:51:51;;;;;;;9.78;5.22;;;;;;;20.61;100.00;99232.92;1716644;82;21020;-66
2022/07/26 04:54:19;;;;;;;8.40;4.60;;;;;;;20.90;100.00;99228.44;1745523;82;20984;-65
2022/07/26 04:56:46;;;;;;;9.53;5.00;;;;;;;21.20;100.00;99227.51;1743635;82;21504;-66
2022/07/26 04:59:12;;;;;;;6.78;4.15;;;;;;;21.44;100.00;99227.36;1742426;80;21515;-66
2022/07/26 05:01:39;;;;;;;7.70;4.28;;;;;;;21.74;100.00;99231.90;1759683;80;21035;-67
2022/07/26 05:04:05;;;;;;;5.65;3.52;;;;;;;21.89;100.00;99226.94;1766374;81;21422;-66
2022/07/26 05:06:31;;;;;;;5.50;3.37;;;;;;;22.13;100.00;99229.53;1718829;82;21037;-66
2022/07/26 05:08:58;;;;;;;7.58;3.25;;;;;;;22.39;100.00;99229.52;1716887;82;21525;-66
2022/07/26 05:11:24;;;;;;;6.33;2.90;;;;;;;22.39;100.00;99229.52;1721319;82;21003;-67
2022/07/26 05:13:50;;;;;;;6.85;3.17;;;;;;;22.50;100.00;99223.60;1727006;82;20988;-65
2022/07/26 05:16:17;;;;;;;5.42;3.60;;;;;;;22.64;100.00;99223.91;1728867;81;21038;-66
2022/07/26 05:18:43;;;;;;;5.35;3.27;;;;;;;22.53;100.00;99216.74;1724309;82;20964;-67
2022/07/26 05:21:10;;;;;;;5.17;2.80;;;;;;;22.73;100.00;99225.35;1730707;82;21063;-65
2022/07/26 05:23:36;;;;;;;4.47;2.55;;;;;;;22.87;100.00;99224.84;1721291;81;20971;-66
2022/07/26 05:26:02;;;;;;;5.62;2.90;;;;;;;22.92;100.00;99222.36;1720934;82;21542;-64
2022/07/26 05:28:29;;;;;;;5.00;2.37;;;;;;;22.90;100.00;99228.27;1720027;82;21019;-66
2022/07/26 05:30:55;;;;;;;3.77;2.60;;;;;;;22.77;100.00;99230.39;1730352;82;20948;-68
2022/07/26 05:33:21;;;;;;;4.28;2.02;;;;;;;22.81;100.00;99224.92;1734121;82;21035;-68
2022/07/26 05:35:48;;;;;;;4.20;1.80;;;;;;;22.73;100.00;99225.35;1721648;81;21839;-68
2022/07/26 05:38:14;;;;;;;4.03;1.90;;;;;;;22.79;100.00;99221.11;1719793;83;21031;-69
2022/07/26 05:40:40;;;;;;;2.85;1.62;;;;;;;22.85;100.00;99224.99;1733831;80;21604;-66
2022/07/26 05:43:07;;;;;;;3.22;1.70;;;;;;;22.92;100.00;99224.52;1737924;81;21497;-66
2022/07/26 05:45:33;;;;;;;4.33;1.82;;;;;;;23.09;100.00;99221.91;1734349;82;21058;-66
2022/07/26 05:48:00;;;;;;;2.87;1.85;;;;;;;23.14;100.00;99228.53;1750981;82;21166;-65
2022/07/26 05:50:26;;;;;;;4.08;1.72;;;;;;;23.17;100.00;99218.08;1724733;82;21421;-65
2022/07/26 05:52:53;;;;;;;4.47;1.50;;;;;;;23.14;100.00;99218.23;1709933;82;21632;-66
2022/07/26 05:55:19;;;;;;;3.47;1.75;;;;;;;23.25;100.00;99221.21;1752371;82;21038;-66
2022/07/26 05:57:48;;;;;;;4.72;1.45;;;;;;;23.26;100.00;99211.72;1749480;81;21623;-66
2022/07/26 06:00:15;;;;;;;2.47;1.30;;;;;;;23.30;100.00;99212.59;1747065;82;21026;-66
2022/07/26 06:02:41;;;;;;;3.37;1.50;;;;;;;23.49;100.00;99213.17;1751144;82;21058;-67
2022/07/26 06:05:08;;;;;;;3.02;1.57;;;;;;;23.66;100.00;99212.09;1752584;82;20975;-67
2022/07/26 06:07:34;;;;;;;2.08;1.20;;;;;;;23.75;100.00;99207.06;1730393;80;21596;-66
2022/07/26 06:10:01;;;;;;;3.10;1.50;;;;;;;23.81;100.00;99210.94;1741610;82;20948;-67
2022/07/26 06:12:27;;;;;;;2.27;1.20;;;;;;;23.70;100.00;99205.97;1734336;82;21031;-66
2022/07/26 06:14:54;;;;;;;3.87;1.20;;;;;;;23.86;100.00;99201.68;1735614;82;21431;-66
2022/07/26 06:17:20;;;;;;;1.75;0.90;;;;;;;23.89;100.00;99204.30;1752340;82;21063;-66
2022/07/26 06:19:46;;;;;;;2.55;0.90;;;;;;;23.88;100.00;99196.53;1727525;82;21027;-67
2022/07/26 06:22:13;;;;;;;2.17;0.90;;;;;;;23.77;100.00;99206.09;1722554;83;21050;-66
2022/07/26 06:24:39;;;;;;;4.33;1.10;;;;;;;23.76;100.00;99203.70;1722471;83;21552;-66
2022/07/26 06:27:05;;;;;;;2.77;0.93;;;;;;;23.85;100.00;99195.09;1723009;82;21079;-66
2022/07/26 06:29:32;;;;;;;2.42;1.90;;;;;;;23.83;100.00;99196.06;1746727;80;21461;-66
2022/07/26 06:31:58;;;;;;;3.15;1.00;;;;;;;23.96;100.00;99189.12;1731440;82;21074;-66
2022/07/26 06:34:25;;;;;;;4.25;0.90;;;;;;;24.11;100.00;99182.60;1747716;82;21018;-66
2022/07/26 06:36:51;;;;;;;4.17;0.80;;;;;;;24.11;100.00;99180.63;1751034;82;21613;-66
2022/07/26 06:39:18;;;;;;;2.17;0.88;;;;;;;24.12;100.00;99187.80;1723915;81;21114;-66
2022/07/26 06:41:44;;;;;;;2.47;0.80;;;;;;;24.14;100.00;99181.30;1708998;84;21071;-66
2022/07/26 06:44:12;;;;;;;2.00;0.90;;;;;;;24.17;100.00;99181.12;1708812;84;21064;-66
2022/07/26 06:46:38;;;;;;;1.50;0.72;;;;;;;24.19;100.00;99174.62;1708610;84;21075;-67
2022/07/26 06:49:04;;;;;;;1.42;0.62;;;;;;;24.18;100.00;99177.98;1710243;82;21091;-68
2022/07/26 06:51:31;;;;;;;1.67;0.90;;;;;;;24.12;100.00;99176.68;1715517;82;21454;-67
2022/07/26 06:53:57;;;;;;;2.17;1.10;;;;;;;24.23;100.00;99174.86;1735997;82;21027;-66
2022/07/26 06:56:24;;;;;;;3.05;0.80;;;;;;;24.53;100.00;99170.70;1737959;82;21574;-66
2022/07/26 06:58:50;;;;;;;1.85;0.98;;;;;;;24.66;100.00;99179.59;1722453;82;21043;-66
2022/07/26 07:01:17;;;;;;;2.80;0.90;;;;;;;24.65;100.00;99178.82;1708879;84;21123;-66
2022/07/26 07:03:44;;;;;;;2.33;0.85;;;;;;;24.63;100.00;99174.20;1708809;84;21075;-67
2022/07/26 07:06:11;;;;;;;2.25;0.80;;;;;;;24.84;100.00;99170.91;1721497;82;21449;-67
2022/07/26 07:08:37;;;;;;;2.92;0.80;;;;;;;24.86;100.00;99174.12;1738390;82;21028;-65
2022/07/26 07:11:04;;;;;;;3.12;0.70;;;;;;;24.87;100.00;99170.76;1728010;82;21059;-67
2022/07/26 07:13:30;;;;;;;1.30;0.70;;;;;;;25.00;100.00;99157.58;1710060;82;21086;-66
2022/07/26 07:15:57;;;;;;;1.87;0.70;;;;;;;24.85;100.00;99159.98;1712043;82;20980;-67
2022/07/26 07:18:24;;;;;;;3.10;1.10;;;;;;;24.84;100.00;99166.73;1709079;82;21024;-67
2022/07/26 07:20:51;;;;;;;1.62;0.70;;;;;;;24.91;100.00;99168.20;1709284;84;21098;-65
2022/07/26 07:23:21;;;;;;;1.47;0.80;;;;;;;25.08;100.00;99163.41;1716574;82;21055;-66
2022/07/26 07:25:46;;;;;;;3.60;1.10;;;;;;;25.15;100.00;99157.14;1714416;82;21038;-66
2022/07/26 07:28:13;;;;;;;1.55;0.78;;;;;;;25.07;100.00;99155.45;1722358;82;21011;-66
2022/07/26 07:30:41;;;;;;;3.12;0.88;;;;;;;25.07;100.00;99152.09;1726017;82;21574;-65
2022/07/26 07:33:11;;;;;;;1.62;0.70;;;;;;;25.14;100.00;99150.77;1724140;82;21485;-65
2022/07/26 07:35:35;;;;;;;3.35;1.02;;;;;;;25.19;100.00;99157.95;1709394;82;21087;-64
2022/07/26 07:38:02;;;;;;;1.72;1.00;;;;;;;25.13;100.00;99151.94;1736907;81;21087;-65
2022/07/26 07:40:29;;;;;;;3.00;0.90;;;;;;;25.21;100.00;99151.42;1737686;82;21577;-64
2022/07/26 07:42:56;;;;;;;1.90;0.78;;;;;;;25.15;100.00;99146.77;1737340;82;21377;-66
2022/07/26 07:45:23;;;;;;;2.20;0.90;;;;;;;25.13;100.00;99150.55;1735727;82;21028;-67
2022/07/26 07:47:49;;;;;;;3.52;0.70;;;;;;;25.25;100.00;99149.48;1738450;82;21026;-66
2022/07/26 07:50:16;;;;;;;1.98;0.88;;;;;;;25.21;100.00;99143.06;1738520;82;21498;-65
2022/07/26 07:52:42;;;;;;;2.02;0.90;;;;;;;25.24;100.00;99145.89;1738429;82;21003;-65
2022/07/26 07:55:09;;;;;;;1.95;0.60;;;;;;;25.24;100.00;99152.85;1735853;82;20992;-65
2022/07/26 07:57:35;;;;;;;1.40;0.90;;;;;;;25.42;100.00;99153.02;1712206;82;21454;-68
2022/07/26 08:00:04;;;;;;;5.55;2.67;;;;;;;25.48;100.00;99163.20;1729916;82;20979;-65
2022/07/26 08:02:32;;;;;;;1.70;0.80;;;;;;;25.40;100.00;99160.94;1736079;82;21008;-66
2022/07/26 08:04:59;;;;;;;1.45;0.80;;;;;;;25.32;100.00;99165.45;1738115;82;21483;-64
2022/07/26 08:07:25;;;;;;;1.90;0.70;;;;;;;25.28;100.00;99159.84;1723087;81;21023;-67
2022/07/26 08:09:51;;;;;;;1.47;0.80;;;;;;;25.32;100.00;99155.12;1728661;82;21025;-67
2022/07/26 08:12:18;;;;;;;1.20;0.65;;;;;;;25.30;100.00;99153.88;1725521;82;21024;-67
2022/07/26 08:14:45;;;;;;;1.57;0.68;;;;;;;25.47;100.00;99144.28;1738370;82;21609;-67
2022/07/26 08:17:12;;;;;;;1.15;0.70;;;;;;;25.83;100.00;99143.20;1737014;82;21033;-67
2022/07/26 08:19:39;;;;;;;2.10;0.78;;;;;;;26.10;100.00;99144.59;1721048;82;21004;-66
2022/07/26 08:22:07;;;;;;;2.80;0.72;;;;;;;26.28;100.00;99148.91;1709012;84;21051;-66
2022/07/26 08:24:34;;;;;;;1.42;0.70;;;;;;;26.41;100.00;99143.20;1708965;84;21900;-66
2022/07/26 08:27:00;;;;;;;1.57;0.70;;;;;;;26.45;100.00;99150.40;1710885;82;21067;-66
2022/07/26 08:29:27;;;;;;;2.10;0.60;;;;;;;26.36;100.00;99147.77;1730532;82;21059;-65
2022/07/26 08:31:53;;;;;;;1.32;0.62;;;;;;;26.35;100.00;99139.98;1718846;81;21020;-66
2022/07/26 08:34:20;;;;;;;2.62;0.75;;;;;;;26.41;100.00;99136.22;1682925;85;21056;-66
2022/07/26 08:36:47;;;;;;;1.80;0.70;;;;;;;26.31;100.00;99142.55;1664942;85;21115;-66
2022/07/26 08:39:14;;;;;;;2.02;0.78;;;;;;;26.20;100.00;99139.70;1667387;84;21084;-65
2022/07/26 08:41:41;;;;;;;1.98;0.50;;;;;;;26.21;100.00;99128.76;1693200;83;21018;-66
2022/07/26 08:44:10;;;;;;;2.42;0.93;;;;;;;26.31;100.00;99141.16;1700972;83;21042;-66
2022/07/26 08:46:38;;;;;;;1.98;0.70;;;;;;;25.99;100.00;99139.55;1703596;83;21666;-65
2022/07/26 08:49:07;;;;;;;2.85;0.68;;;;;;;25.69;100.00;99148.08;1701508;83;21500;-65
2022/07/26 08:51:44;;;;;;;1.15;0.70;;;;;;;25.41;100.00;99145.03;1699325;83;21093;-65
2022/07/26 08:54:12;;;;;;;;;;;;;;;25.23;100.00;99144.27;1670393;84;21045;-66
2022/07/26 08:56:51;;;;;;;1.67;0.90;;;;;;;25.28;100.00;99146.51;1687594;84;20103;-66
2022/07/26 08:59:19;;;;;;;1.90;0.72;;;;;;;25.20;100.00;99152.02;1700611;83;21508;-64
2022/07/26 09:01:57;;;;;;;5.30;0.90;;;;;;;25.10;100.00;99153.30;1695290;84;21057;-66
2022/07/26 09:04:31;;;;;;;1.95;1.00;;;;;;;25.08;100.00;99150.11;1665847;86;21094;-66
2022/07/26 09:07:11;;;;;;;1.35;0.70;;;;;;;25.12;100.00;99146.73;1698567;83;21101;-65
2022/07/26 09:10:00;;;;;;;1.95;0.80;;;;;;;25.17;100.00;99145.02;1676303;83;21033;-65
2022/07/26 09:12:27;;;;;;;2.27;0.90;;;;;;;25.22;100.00;99137.72;1707435;83;21024;-66
2022/07/26 09:14:55;;;;;;;3.30;1.00;;;;;;;25.44;100.00;99133.91;1710113;84;21023;-65
2022/07/26 09:17:23;;;;;;;2.60;0.90;;;;;;;25.68;100.00;99139.53;1691811;84;21065;-65
2022/07/26 09:20:11;;;;;;;1.25;0.85;;;;;;;25.78;100.00;99133.23;1684393;84;21038;-64
2022/07/26 09:22:40;;;;;;;2.00;0.90;;;;;;;25.71;100.00;99131.20;1694674;84;21057;-64
2022/07/26 09:25:21;;;;;;;2.40;0.88;;;;;;;25.57;100.00;99136.66;1695658;83;21154;-64
2022/07/26 09:27:47;;;;;;;2.85;0.75;;;;;;;25.40;100.00;99124.72;1686888;84;21131;-65
2022/07/26 09:30:15;;;;;;;2.42;1.17;;;;;;;25.20;100.00;99126.14;1666939;86;21049;-64
2022/07/26 09:33:05;;;;;;;2.55;1.80;;;;;;;25.16;100.00;99128.09;1722034;83;21046;-66
2022/07/26 09:35:36;;;;;;;3.02;1.52;;;;;;;25.05;100.00;99127.98;1724165;83;21653;-64
2022/07/26 09:38:14;;;;;;;3.72;1.10;;;;;;;24.93;100.00;99131.64;1714939;83;21056;-65
2022/07/26 09:40:41;;;;;;;2.05;1.07;;;;;;;24.99;100.00;99132.30;1711814;83;21081;-65
2022/07/26 09:43:07;;;;;;;2.77;1.30;;;;;;;25.13;100.00;99122.70;1701214;83;21168;-68
2022/07/26 09:45:36;;;;;;;2.77;0.95;;;;;;;25.39;100.00;99121.75;1690838;84;21073;-67
2022/07/26 09:48:03;;;;;;;2.45;1.20;;;;;;;25.57;100.00;99124.71;1707361;83;21125;-66
2022/07/26 09:50:31;;;;;;;3.65;1.10;;;;;;;25.64;100.00;99115.81;1691164;84;21081;-67
2022/07/26 09:53:10;;;;;;;2.40;1.22;;;;;;;25.62;100.00;99119.56;1710676;83;21050;-66
2022/07/26 09:55:49;;;;;;;2.80;1.25;;;;;;;25.73;100.00;99118.25;1716625;83;21568;-65
2022/07/26 09:58:15;;;;;;;3.83;2.40;;;;;;;25.84;100.00;99118.33;1720320;83;21058;-65
2022/07/26 10:00:42;;;;;;;3.50;1.65;;;;;;;25.82;100.00;99125.70;1714963;83;21065;-66
2022/07/26 10:03:09;;;;;;;3.42;2.20;;;;;;;25.78;100.00;99131.84;1705437;83;21053;-67
2022/07/26 10:05:37;;;;;;;2.92;1.47;;;;;;;25.81;100.00;99128.27;1678426;84;21597;-68
2022/07/26 10:08:04;;;;;;;2.20;1.37;;;;;;;25.70;100.00;99132.97;1674195;84;21129;-66
2022/07/26 10:10:37;;;;;;;2.95;1.60;;;;;;;25.51;100.00;99129.02;1686318;84;20988;-67
2022/07/26 10:13:04;;;;;;;3.27;1.45;;;;;;;25.33;100.00;99127.44;1685459;84;21145;-68
2022/07/26 10:15:42;;;;;;;3.77;1.60;;;;;;;25.26;100.00;99125.98;1683041;84;21006;-65
2022/07/26 10:18:11;;;;;;;4.92;1.60;;;;;;;25.27;100.00;99122.02;1679680;84;21636;-68
2022/07/26 10:20:45;;;;;;;2.30;1.30;;;;;;;25.24;100.00;99118.03;1709503;83;20990;-66
2022/07/26 10:23:38;;;;;;;3.75;1.30;;;;;;;25.23;100.00;99116.42;1724290;83;21544;-68
2022/07/26 10:26:08;;;;;;;2.58;1.35;;;;;;;25.25;100.00;99109.89;1701879;84;22015;-65
2022/07/26 10:28:36;;;;;;;2.85;1.57;;;;;;;25.18;100.00;99113.20;1667800;85;20996;-63
2022/07/26 10:31:24;;;;;;;3.75;1.80;;;;;;;25.19;100.00;99104.44;1684468;84;21019;-67
2022/07/26 10:33:53;;;;;;;4.25;1.70;;;;;;;25.22;100.00;99100.89;1674720;84;21581;-65
2022/07/26 10:36:28;;;;;;;2.87;1.90;;;;;;;25.25;100.00;99103.52;1675691;84;21158;-65
2022/07/26 10:39:08;;;;;;;2.80;1.53;;;;;;;25.32;100.00;99113.33;1698167;83;21202;-67
2022/07/26 10:41:47;;;;;;;3.75;1.80;;;;;;;25.34;100.00;99112.34;1713777;83;21624;-67
2022/07/26 10:44:20;;;;;;;3.30;1.60;;;;;;;25.30;100.00;99112.09;1670752;83;21061;-66
2022/07/26 10:47:10;;;;;;;3.17;1.60;;;;;;;25.24;100.00;99109.67;1715032;83;21578;-67
2022/07/26 10:49:42;;;;;;;4.00;1.50;;;;;;;25.34;100.00;99112.92;1701340;83;21084;-66
2022/07/26 10:54:02;;;;;;;2.40;1.40;;;;;;;25.58;98.58;99104.00;1791626;79;23347;-64
2022/07/26 10:56:29;;;;;;;3.30;1.17;;;;;;;25.54;100.00;99104.59;1740422;81;21094;-64
2022/07/26 10:58:56;;;;;;;2.92;1.50;;;;;;;25.63;100.00;99100.86;1724630;82;21003;-64
2022/07/26 11:01:33;;;;;;;2.83;1.52;;;;;;;25.81;97.86;99096.21;1717942;81;21062;-64
2022/07/26 11:04:00;;;;;;;4.60;1.60;;;;;;;26.04;100.00;99096.73;1708601;82;21031;-65
2022/07/26 11:06:28;;;;;;;3.17;1.37;;;;;;;26.16;94.64;99094.22;1724934;82;21751;-66
2022/07/26 11:08:55;;;;;;;3.17;1.50;;;;;;;26.06;86.41;99089.39;1729116;83;21058;-66
2022/07/26 11:11:31;;;;;;;2.40;1.35;;;;;;;25.88;85.16;99091.27;1725969;82;21080;-67
2022/07/26 11:14:09;;;;;;;2.42;1.30;;;;;;;25.68;82.74;99093.55;1722498;81;21050;-65
2022/07/26 11:16:43;;;;;;;3.33;1.50;;;;;;;25.51;88.84;99090.01;1695807;84;21090;-65
2022/07/26 11:19:23;;;;;;;3.40;1.30;;;;;;;25.49;88.58;99077.03;1681800;84;21049;-66
2022/07/26 11:21:58;;;;;;;2.85;1.62;;;;;;;25.55;84.73;99083.88;1673457;84;21640;-66
2022/07/26 11:24:26;;;;;;;3.75;1.60;;;;;;;25.62;80.94;99081.94;1672748;86;21091;-66
2022/07/26 11:26:53;;;;;;;3.40;1.42;;;;;;;25.71;87.61;99078.83;1667922;85;21081;-67
2022/07/26 11:29:27;;;;;;;4.97;1.32;;;;;;;25.72;82.01;99071.45;1674584;84;21516;-66
2022/07/26 11:31:54;;;;;;;3.98;1.40;;;;;;;25.74;88.29;99073.86;1672371;84;21093;-66
2022/07/26 11:34:25;;;;;;;5.25;1.37;;;;;;;25.84;90.94;99073.72;1675475;85;21458;-66
2022/07/26 11:36:56;;;;;;;6.40;2.17;;;;;;;26.04;85.78;99074.42;1685003;84;21629;-65
2022/07/26 11:39:27;;;;;;;3.12;1.30;;;;;;;26.19;81.06;99073.34;1657510;86;21031;-65